logo
Search for airport 
image banner adimage banner adimage banner ad
image banner ad

FALE - King Shaka International

Located in Durban, South Africa

ICAO - FALE, IATA - DUR

Data provided by Airmate  

General information

Coordinates: S29°36'42" E31°7'10"
Elevation is 304 feet MSL.
Magnetic variation is -25° East
View others Airports in Kwazulu-Natal

Operational data

Special qualification required
Current time UTC:
Current local time:
Weather
METAR: FALE 140400Z VRB02KT CAVOK 15/14 Q1020 NOSIG
TAF: TAF FALE 132200Z 1400/1506 VRB03KT 9999 SCT030 BKN040 TX25/1412Z TN16/1403Z BECMG 1410/1412 06015KT SCT035 PROB30 TEMPO 1415/1421 5000 SHRA BKN020 FEW030TCU BECMG 1416/1418 01005KT
View NOTAMs / SUP AIP / TFR affecting this airport [VIEW]
Communications frequencies: [VIEW]

Runways:

RWY identifierQFULength (ft)Width (ft)SurfaceLDA (ft)
0637°12115187ASPH12139
24217°12115187ASPH12139

Airport contact information

Address: Durban South Africa

Other aviation service providers

Flight schools

Ballito Microlight

Ballito Microlight
comefly@mweb.co.za+27842663359

Satellite view of FALE